New Bedford Regional Airport New Bedford US
ICAO: KEWB
IATA: EWB
Category: Medium
Scheduled Services: Yes

Elevation: 80 ft
TransAlt. 18000 ft.

Airport Communications:
PROVIDENCE APP/DEP:128.7
ATIS:126.85
CTAF:118.1
GND:121.9
TWR:118.1
UNICOM:122.95

KEWB Zoom In..

Runways:

(A) RW 05 length 4997 ft width 150 ft
ILS 109.70 / hdg 54

(B) RW 14 length 5000 ft width 150 ft
---- / hdg 144

(C) RW 23 length 4997 ft width 150 ft
---- / hdg 234

(D) RW 32 length 5000 ft width 150 ft
---- / hdg 324

Location; KEWB
Day. 25 / Time. 11.53 Zulu
* Altimeter: 30.10
* Temperature: 11° c. 51.8°f.
* Wind from: 140° Speed 15 kn with Gusts up to 20 kn.
Dewpoint: 09° c.
Visibility: 4 Statute Miles.
Clouds: Broken 2900 ft.
Clouds: Broken 3600 ft.
Clouds: Overcast 4200 ft.
Conditions: Light Rain.Conditions: Mist.

KEWB 251153Z 14015G20KT 4SM -RA BR BKN029 BKN036 OVC042 11/09 A3010 RMK AO2 SLP193 P0004 60007 70007 T01110094 10117 20100 58007


Wind From 140°
Speed 15 kn.

  YouTube Music Video
 
jpsmedia.com for Web Design  worldairports.se 2018   terms of use